Time,TemperatureF,DewpointF,PressureIn,WindDirection,WindDirectionDegrees,WindSpeedMPH,WindSpeedGustMPH,Humidity,HourlyPrecipIn,Conditions,Clouds,dailyrainin,SoftwareType,DateUTC
2013-09-20 00:14:00,56.0,53.0,30.09,NW,321,0.0,1.0,89,0.00,,,0.00,,2013-09-20 04:14:00,
2013-09-20 00:24:00,55.0,52.0,30.09,NW,320,0.0,1.0,91,0.00,,,0.00,,2013-09-20 04:24:00,
2013-09-20 00:44:00,55.0,53.0,30.09,NW,320,0.0,1.0,94,0.00,,,0.00,,2013-09-20 04:44:00,
2013-09-20 00:54:00,54.0,52.0,30.09,NW,320,0.0,1.0,92,0.00,,,0.00,,2013-09-20 04:54:00,
2013-09-20 01:13:00,54.0,52.0,30.09,NW,321,0.0,1.0,92,0.00,,,0.00,,2013-09-20 05:13:00,
2013-09-20 01:23:00,54.0,52.0,30.09,NW,318,0.0,1.0,92,0.00,,,0.00,,2013-09-20 05:23:00,
2013-09-20 01:53:00,54.0,49.0,30.06,NW,307,0.0,1.0,83,0.00,,,0.00,,2013-09-20 05:53:00,
2013-09-20 02:12:00,54.0,49.0,30.08,NW,308,0.0,2.0,84,0.00,,,0.00,,2013-09-20 06:12:00,
2013-09-20 02:22:00,53.0,50.0,30.09,NW,308,0.0,1.0,88,0.00,,,0.00,,2013-09-20 06:22:00,
2013-09-20 02:42:00,53.0,50.0,30.08,NW,308,0.0,1.0,88,0.00,,,0.00,,2013-09-20 06:42:00,
2013-09-20 02:52:00,53.0,50.0,30.08,NW,305,0.0,0.0,89,0.00,,,0.00,,2013-09-20 06:52:00,
2013-09-20 03:12:00,53.0,51.0,30.09,NW,306,0.0,1.0,92,0.00,,,0.00,,2013-09-20 07:12:00,
2013-09-20 03:23:00,52.0,50.0,30.08,NW,305,0.0,1.0,93,0.00,,,0.00,,2013-09-20 07:23:00,
2013-09-20 03:42:00,52.0,50.0,30.08,NW,305,0.0,1.0,93,0.00,,,0.00,,2013-09-20 07:42:00,
2013-09-20 03:53:00,52.0,49.0,30.08,NW,305,0.0,1.0,91,0.00,,,0.00,,2013-09-20 07:53:00,
2013-09-20 04:11:00,51.0,49.0,30.08,NW,304,0.0,1.0,94,0.00,,,0.00,,2013-09-20 08:11:00,
2013-09-20 04:22:00,51.0,49.0,30.08,WNW,297,0.0,1.0,94,0.00,,,0.00,,2013-09-20 08:22:00,
2013-09-20 04:52:00,51.0,50.0,30.05,SW,235,0.0,2.0,95,0.00,,,0.00,,2013-09-20 08:52:00,
2013-09-20 05:12:00,52.0,49.0,30.05,NW,308,0.0,1.0,91,0.00,,,0.00,,2013-09-20 09:12:00,
2013-09-20 05:22:00,52.0,50.0,30.07,NW,308,0.0,1.0,93,0.00,,,0.00,,2013-09-20 09:22:00,
2013-09-20 05:43:00,52.0,50.0,30.07,WNW,291,0.0,1.0,93,0.00,,,0.00,,2013-09-20 09:43:00,
2013-09-20 05:53:00,51.0,49.0,30.08,WNW,291,0.0,0.0,94,0.00,,,0.00,,2013-09-20 09:53:00,
2013-09-20 06:13:00,50.0,49.0,30.09,WNW,291,1.0,1.0,95,0.00,,,0.00,,2013-09-20 10:13:00,
2013-09-20 06:23:00,51.0,50.0,30.09,WNW,291,0.0,0.0,96,0.00,,,0.00,,2013-09-20 10:23:00,
2013-09-20 06:42:00,51.0,50.0,30.09,WNW,292,0.0,1.0,95,0.00,,,0.00,,2013-09-20 10:42:00,
2013-09-20 06:53:00,51.0,50.0,30.09,WNW,293,0.0,1.0,96,0.00,,,0.00,,2013-09-20 10:53:00,
2013-09-20 07:12:00,50.0,49.0,30.10,WNW,293,0.0,1.0,96,0.00,,,0.00,,2013-09-20 11:12:00,
2013-09-20 07:23:00,51.0,50.0,30.10,WNW,292,0.0,0.0,97,0.00,,,0.00,,2013-09-20 11:23:00,
2013-09-20 07:42:00,51.0,50.0,30.10,WNW,291,1.0,1.0,97,0.00,,,0.00,,2013-09-20 11:42:00,
2013-09-20 07:52:00,52.0,51.0,30.09,WNW,291,0.0,1.0,96,0.00,,,0.00,,2013-09-20 11:52:00,
2013-09-20 08:12:00,52.0,51.0,30.10,WNW,291,0.0,0.0,95,0.00,,,0.00,,2013-09-20 12:12:00,
2013-09-20 08:22:00,52.0,51.0,30.07,WNW,291,0.0,1.0,96,0.00,,,0.00,,2013-09-20 12:22:00,
2013-09-20 08:43:00,52.0,50.0,30.10,WNW,292,0.0,1.0,94,0.00,,,0.00,,2013-09-20 12:43:00,
2013-09-20 08:52:00,53.0,52.0,30.11,WNW,303,0.0,1.0,95,0.00,,,0.00,,2013-09-20 12:52:00,
2013-09-20 09:12:00,53.0,51.0,30.11,WNW,302,0.0,0.0,94,0.00,,,0.00,,2013-09-20 13:12:00,
2013-09-20 09:22:00,55.0,53.0,30.11,NW,308,0.0,0.0,92,0.00,,,0.00,,2013-09-20 13:22:00,
2013-09-20 09:42:00,56.0,53.0,30.11,NW,308,0.0,0.0,91,0.00,,,0.00,,2013-09-20 13:42:00,
2013-09-20 09:53:00,58.0,55.0,30.12,NW,308,1.0,2.0,89,0.00,,,0.00,,2013-09-20 13:53:00,
2013-09-20 10:11:00,59.0,55.0,30.14,NNW,337,1.0,2.0,87,0.00,,,0.00,,2013-09-20 14:11:00,
2013-09-20 10:21:00,61.0,56.0,30.13,NNW,332,0.0,0.0,83,0.00,,,0.00,,2013-09-20 14:21:00,
2013-09-20 10:42:00,63.0,57.0,30.12,NNW,332,0.0,1.0,80,0.00,,,0.00,,2013-09-20 14:42:00,
2013-09-20 10:52:00,64.0,57.0,30.12,NNW,332,1.0,2.0,78,0.00,,,0.00,,2013-09-20 14:52:00,
2013-09-20 11:12:00,65.0,59.0,30.11,NW,324,1.0,2.0,80,0.00,,,0.00,,2013-09-20 15:12:00,
2013-09-20 11:22:00,66.0,58.0,30.11,North,2,1.0,3.0,75,0.00,,,0.00,,2013-09-20 15:22:00,
2013-09-20 11:44:00,67.0,58.0,30.08,West,272,0.0,2.0,72,0.00,,,0.00,,2013-09-20 15:44:00,
2013-09-20 11:54:00,69.0,56.0,30.11,WSW,258,2.0,3.0,64,0.00,,,0.00,,2013-09-20 15:54:00,
2013-09-20 12:13:00,70.0,55.0,30.10,East,98,1.0,5.0,60,0.00,,,0.00,,2013-09-20 16:13:00,
2013-09-20 12:23:00,71.0,58.0,30.09,WNW,285,0.0,3.0,63,0.00,,,0.00,,2013-09-20 16:23:00,
2013-09-20 12:42:00,72.0,57.0,30.09,North,349,1.0,4.0,60,0.00,,,0.00,,2013-09-20 16:42:00,
2013-09-20 12:53:00,72.0,58.0,30.08,WNW,294,1.0,5.0,61,0.00,,,0.00,,2013-09-20 16:53:00,
2013-09-20 13:13:00,73.0,59.0,30.08,NW,308,1.0,3.0,62,0.00,,,0.00,,2013-09-20 17:13:00,
2013-09-20 13:24:00,74.0,60.0,30.07,West,267,1.0,4.0,61,0.00,,,0.00,,2013-09-20 17:24:00,
2013-09-20 13:42:00,74.0,59.0,30.06,North,360,1.0,3.0,60,0.00,,,0.00,,2013-09-20 17:42:00,
2013-09-20 13:53:00,75.0,61.0,30.06,WNW,295,1.0,5.0,61,0.00,,,0.00,,2013-09-20 17:53:00,
2013-09-20 14:12:00,75.0,60.0,30.06,West,279,0.0,4.0,59,0.00,,,0.00,,2013-09-20 18:12:00,
2013-09-20 14:22:00,75.0,59.0,30.06,West,269,1.0,3.0,58,0.00,,,0.00,,2013-09-20 18:22:00,
2013-09-20 14:42:00,76.0,58.0,30.05,WSW,238,1.0,4.0,54,0.00,,,0.00,,2013-09-20 18:42:00,
2013-09-20 14:52:00,76.0,58.0,30.01,West,266,1.0,4.0,53,0.00,,,0.00,,2013-09-20 18:52:00,
2013-09-20 15:12:00,77.0,58.0,30.05,SE,130,0.0,5.0,52,0.00,,,0.00,,2013-09-20 19:12:00,
2013-09-20 15:22:00,77.0,60.0,30.04,NE,45,1.0,3.0,55,0.00,,,0.00,,2013-09-20 19:22:00,
2013-09-20 15:42:00,78.0,58.0,30.03,WNW,302,0.0,4.0,50,0.00,,,0.00,,2013-09-20 19:42:00,
2013-09-20 16:12:00,78.0,59.0,30.04,WNW,294,1.0,3.0,52,0.00,,,0.00,,2013-09-20 20:12:00,
2013-09-20 16:22:00,78.0,59.0,30.03,NNE,29,1.0,4.0,53,0.00,,,0.00,,2013-09-20 20:22:00,
2013-09-20 16:42:00,78.0,61.0,30.03,WNW,293,0.0,3.0,55,0.00,,,0.00,,2013-09-20 20:42:00,
2013-09-20 16:52:00,78.0,59.0,30.03,West,272,1.0,4.0,53,0.00,,,0.00,,2013-09-20 20:52:00,
2013-09-20 17:12:00,78.0,59.0,30.03,West,270,1.0,3.0,53,0.00,,,0.00,,2013-09-20 21:12:00,
2013-09-20 17:22:00,76.0,60.0,29.99,WNW,292,0.0,3.0,57,0.00,,,0.00,,2013-09-20 21:22:00,
2013-09-20 17:55:00,75.0,60.0,30.02,West,259,1.0,3.0,59,0.00,,,0.00,,2013-09-20 21:55:00,
2013-09-20 18:14:00,74.0,60.0,30.03,WNW,284,0.0,2.0,62,0.00,,,0.00,,2013-09-20 22:14:00,
2013-09-20 18:24:00,73.0,59.0,30.03,NW,312,0.0,2.0,62,0.00,,,0.00,,2013-09-20 22:24:00,
2013-09-20 18:44:00,72.0,59.0,30.03,WNW,298,0.0,1.0,64,0.00,,,0.00,,2013-09-20 22:44:00,
2013-09-20 18:53:00,70.0,59.0,30.03,NW,323,0.0,1.0,67,0.00,,,0.00,,2013-09-20 22:53:00,
2013-09-20 19:13:00,67.0,57.0,30.03,NW,306,0.0,1.0,71,0.00,,,0.00,,2013-09-20 23:13:00,
2013-09-20 19:23:00,66.0,56.0,30.02,NNW,327,0.0,2.0,71,0.00,,,0.00,,2013-09-20 23:23:00,
2013-09-20 19:42:00,64.0,56.0,30.02,NNE,12,0.0,2.0,75,0.00,,,0.00,,2013-09-20 23:42:00,
2013-09-20 19:53:00,64.0,56.0,30.03,NW,314,0.0,3.0,75,0.00,,,0.00,,2013-09-20 23:53:00,
2013-09-20 20:11:00,63.0,56.0,30.03,NW,308,0.0,1.0,77,0.00,,,0.00,,2013-09-21 00:11:00,
2013-09-20 20:22:00,62.0,56.0,30.03,NW,312,0.0,1.0,81,0.00,,,0.00,,2013-09-21 00:22:00,
2013-09-20 20:42:00,61.0,56.0,30.00,NNW,343,0.0,1.0,83,0.00,,,0.00,,2013-09-21 00:42:00,
2013-09-20 20:52:00,61.0,55.0,30.03,NNW,348,0.0,1.0,82,0.00,,,0.00,,2013-09-21 00:52:00,
2013-09-20 21:12:00,61.0,56.0,30.03,NNW,332,0.0,1.0,84,0.00,,,0.00,,2013-09-21 01:12:00,
2013-09-20 21:22:00,60.0,55.0,30.04,NNE,19,1.0,2.0,84,0.00,,,0.00,,2013-09-21 01:22:00,
2013-09-20 21:42:00,60.0,56.0,30.03,NW,310,0.0,1.0,86,0.00,,,0.00,,2013-09-21 01:42:00,
2013-09-20 21:52:00,59.0,55.0,30.03,NW,310,0.0,1.0,88,0.00,,,0.00,,2013-09-21 01:52:00,
2013-09-20 22:12:00,58.0,55.0,30.03,West,271,0.0,2.0,89,0.00,,,0.00,,2013-09-21 02:12:00,
2013-09-20 22:22:00,58.0,55.0,30.02,WNW,292,0.0,1.0,90,0.00,,,0.00,,2013-09-21 02:22:00,
2013-09-20 22:42:00,59.0,56.0,30.02,West,273,0.0,1.0,90,0.00,,,0.00,,2013-09-21 02:42:00,
2013-09-20 22:52:00,59.0,56.0,30.02,ESE,111,1.0,4.0,91,0.00,,,0.00,,2013-09-21 02:52:00,
2013-09-20 23:12:00,59.0,56.0,30.02,WSW,256,0.0,3.0,90,0.00,,,0.00,,2013-09-21 03:12:00,
2013-09-20 23:22:00,59.0,56.0,30.02,ESE,118,1.0,3.0,91,0.00,,,0.00,,2013-09-21 03:22:00,
2013-09-20 23:44:00,57.0,54.0,29.99,WNW,301,0.0,2.0,91,0.00,,,0.00,,2013-09-21 03:44:00,
2013-09-20 23:55:00,57.0,53.0,29.99,West,263,0.0,2.0,86,0.00,,,0.00,,2013-09-21 03:55:00,